Terminal Aerodrome Forecast
Issued by NWS

Home | Current Version | Previous Version | Text Only | Print | Product List | Glossary On
Versions: 1 2 3 4 5 6 7 8 9 10 11 12 13 14 15 16 17
060
FTUS45 KABQ 232337
TAFAEG
TAF
KAEG 232337Z 2400/2424 22022G30KT P6SM BKN080
     FM240200 22016KT P6SM BKN060
      TEMPO 2405/2409 3SM -SN OVC019
     FM240900 25014KT P6SM OVC025
     FM241300 24013KT P6SM OVC035
     FM241600 24016G24KT P6SM BKN040
     FM241900 26024G32KT P6SM VCSH BKN050=

USA.gov is the U.S. government's official web portal to all federal, state and local government web resources and services.